createdAt,value
2023-09-13T00:04:42.990Z,21.90
2023-09-13T00:09:44.687Z,22.90
2023-09-13T00:14:48.764Z,23.14
2023-09-13T00:19:50.631Z,21.69
2023-09-13T00:24:52.264Z,22.02
2023-09-13T00:29:54.165Z,22.29
2023-09-13T00:34:55.795Z,22.95
2023-09-13T00:39:57.458Z,21.96
2023-09-13T00:44:59.141Z,22.57
2023-09-13T00:50:01.260Z,24.32
2023-09-13T00:55:05.663Z,23.53
2023-09-13T01:00:10.740Z,22.97
2023-09-13T01:05:15.246Z,22.01
2023-09-13T01:10:16.936Z,21.80
2023-09-13T01:15:18.808Z,22.70
2023-09-13T01:20:45.916Z,22.53
2023-09-13T01:26:08.736Z,21.95
2023-09-13T01:31:11.724Z,21.50
2023-09-13T01:36:13.802Z,22.14
2023-09-13T01:41:26.242Z,21.73
2023-09-13T01:46:36.501Z,21.05
2023-09-13T01:51:38.559Z,21.52
2023-09-13T01:56:40.223Z,19.47
2023-09-13T02:01:41.949Z,20.73
2023-09-13T02:06:43.751Z,20.42
2023-09-13T02:11:45.433Z,19.93
2023-09-13T02:16:47.145Z,20.28
2023-09-13T02:21:49.029Z,20.38
2023-09-13T02:26:56.065Z,20.46
2023-09-13T02:31:57.867Z,19.95
2023-09-13T02:36:59.820Z,19.79
2023-09-13T02:42:03.454Z,20.32
2023-09-13T02:47:05.372Z,20.19
2023-09-13T02:52:07.251Z,21.19
2023-09-13T02:57:09.202Z,21.90
2023-09-13T03:02:10.980Z,21.07
2023-09-13T03:07:12.652Z,20.78
2023-09-13T03:12:14.528Z,20.17
2023-09-13T03:17:16.237Z,20.16
2023-09-13T03:22:19.835Z,20.96
2023-09-13T03:27:21.520Z,20.63
2023-09-13T03:32:23.122Z,20.23
2023-09-13T03:37:24.956Z,20.30
2023-09-13T03:42:26.677Z,20.22
2023-09-13T03:47:28.312Z,21.44
2023-09-13T03:52:30.336Z,21.19
2023-09-13T03:57:31.944Z,20.73
2023-09-13T04:02:33.835Z,20.73
2023-09-13T04:07:35.566Z,20.74
2023-09-13T04:12:37.689Z,20.58
2023-09-13T04:17:39.399Z,21.91
2023-09-13T04:22:41.092Z,21.33
2023-09-13T04:27:46.395Z,22.41
2023-09-13T04:32:48.633Z,22.57
2023-09-13T04:37:50.362Z,23.89
2023-09-13T04:43:07.370Z,22.79
2023-09-13T04:48:09.163Z,22.88
2023-09-13T04:53:10.831Z,22.96
2023-09-13T04:58:12.668Z,22.41
2023-09-13T05:03:14.351Z,23.85
2023-09-13T05:08:16.746Z,23.59
2023-09-13T05:13:18.397Z,23.52
2023-09-13T05:18:20.232Z,22.95
2023-09-13T05:23:21.880Z,22.58
2023-09-13T05:28:23.908Z,22.10
2023-09-13T05:33:26.530Z,22.21
2023-09-13T05:38:28.198Z,22.19
2023-09-13T05:43:30.433Z,21.22
2023-09-13T05:48:32.595Z,22.52
2023-09-13T05:53:34.225Z,22.56
2023-09-13T05:58:35.852Z,21.62
2023-09-13T06:03:37.538Z,20.98
2023-09-13T06:08:39.142Z,21.28
2023-09-13T06:13:40.783Z,21.47
2023-09-13T06:18:42.454Z,21.11
2023-09-13T06:23:45.141Z,21.44
2023-09-13T06:28:47.286Z,21.80
2023-09-13T06:33:49.122Z,22.43
2023-09-13T06:38:51.535Z,22.84
2023-09-13T06:49:02.427Z,21.87
2023-09-13T06:54:06.063Z,22.41
2023-09-13T06:59:10.514Z,22.40
2023-09-13T07:04:18.288Z,23.57
2023-09-13T07:09:24.555Z,23.05
2023-09-13T07:14:26.220Z,21.23
2023-09-13T07:19:28.144Z,22.82
2023-09-13T07:24:30.282Z,22.08
2023-09-13T07:29:31.988Z,20.29
2023-09-13T07:34:33.797Z,23.14
2023-09-13T07:39:35.560Z,20.62
2023-09-13T07:44:37.281Z,20.82
2023-09-13T07:49:38.989Z,22.92
2023-09-13T07:54:40.790Z,23.24
2023-09-13T07:59:42.452Z,23.95
2023-09-13T08:04:44.183Z,23.44
2023-09-13T08:09:46.104Z,21.32
2023-09-13T08:14:47.811Z,23.48
2023-09-13T08:19:51.405Z,23.55
2023-09-13T08:24:53.455Z,22.70
2023-09-13T08:29:55.303Z,23.06
2023-09-13T08:34:57.310Z,22.99
2023-09-13T08:39:59.000Z,23.67
2023-09-13T08:45:01.202Z,23.52
2023-09-13T08:50:05.174Z,22.90
2023-09-13T08:55:08.530Z,22.97
2023-09-13T09:00:10.775Z,23.53
2023-09-13T09:05:13.941Z,23.44
2023-09-13T09:10:16.656Z,23.49
2023-09-13T09:15:19.802Z,23.79
2023-09-13T09:20:22.054Z,24.00
2023-09-13T09:25:25.940Z,24.36
2023-09-13T09:30:35.158Z,23.28
2023-09-13T09:35:37.726Z,23.45
2023-09-13T09:40:39.670Z,23.53
2023-09-13T09:45:41.777Z,23.20
2023-09-13T09:50:48.176Z,23.80
2023-09-13T09:55:51.673Z,23.26
2023-09-13T10:00:55.164Z,23.72
2023-09-13T10:06:14.894Z,23.69
2023-09-13T10:11:24.067Z,24.19
2023-09-13T10:16:30.349Z,24.04
2023-09-13T10:21:34.114Z,24.81
2023-09-13T10:26:36.593Z,24.36
2023-09-13T10:31:44.798Z,23.74
2023-09-13T10:36:52.527Z,23.53
2023-09-13T10:42:05.748Z,24.63
2023-09-13T10:47:09.247Z,24.54
2023-09-13T10:52:11.061Z,24.27
2023-09-13T10:57:16.292Z,24.99
2023-09-13T11:06:21.306Z,21.81
2023-09-13T11:11:26.160Z,21.75
2023-09-13T11:16:29.475Z,22.29
2023-09-13T11:21:47.592Z,22.14
2023-09-13T11:26:50.063Z,22.23
2023-09-13T11:32:02.241Z,21.99
2023-09-13T11:37:08.979Z,23.05
2023-09-13T11:42:21.008Z,22.60
2023-09-13T11:47:27.496Z,22.75
2023-09-13T11:53:00.634Z,22.14
2023-09-13T11:58:12.477Z,22.19
2023-09-13T12:03:34.971Z,21.10
2023-09-13T12:08:46.385Z,22.84
2023-09-13T12:14:06.947Z,21.50
2023-09-13T12:19:13.410Z,22.89
2023-09-13T12:24:24.869Z,21.87
2023-09-13T12:29:26.684Z,22.57
2023-09-13T12:34:28.574Z,20.84
2023-09-13T12:39:30.303Z,23.19
2023-09-13T12:44:33.733Z,23.11
2023-09-13T12:49:40.009Z,22.88
2023-09-13T12:54:43.548Z,22.65
2023-09-13T12:59:46.592Z,24.26
2023-09-13T13:04:48.460Z,23.25
2023-09-13T13:09:53.946Z,21.74
2023-09-13T13:14:55.859Z,22.68
2023-09-13T13:19:57.924Z,23.31
2023-09-13T13:24:59.808Z,22.99
2023-09-13T13:30:01.493Z,22.73
2023-09-13T13:35:05.253Z,23.15
2023-09-13T16:53:46.470Z,22.28
2023-09-13T16:58:48.099Z,21.77
2023-09-13T17:03:50.315Z,22.82
2023-09-13T17:08:52.384Z,23.63
2023-09-13T17:13:55.049Z,25.19
2023-09-13T17:18:56.706Z,23.08
2023-09-13T17:23:59.309Z,24.06
2023-09-13T17:29:00.942Z,23.11
2023-09-13T17:34:03.907Z,24.55
2023-09-13T17:39:09.518Z,24.86
2023-09-13T17:44:11.163Z,22.92
2023-09-13T17:49:14.530Z,23.42
2023-09-13T17:54:16.151Z,23.82
2023-09-13T17:59:17.764Z,23.18
2023-09-13T18:04:19.502Z,23.28
2023-09-13T18:09:21.414Z,24.16
2023-09-13T18:14:23.035Z,23.67
2023-09-13T18:19:25.460Z,24.55
2023-09-13T18:24:38.949Z,23.65
2023-09-13T18:29:45.104Z,23.13
2023-09-13T18:34:46.970Z,24.54
2023-09-13T18:39:48.889Z,23.70
2023-09-13T18:44:50.789Z,24.62
2023-09-13T18:49:53.133Z,22.06
2023-09-13T18:54:55.109Z,23.05
2023-09-13T18:59:57.427Z,22.98
2023-09-13T19:04:59.099Z,22.44
2023-09-13T19:10:01.905Z,22.24
2023-09-13T19:15:04.152Z,22.29
2023-09-13T19:20:09.418Z,22.58
2023-09-13T19:25:11.317Z,21.95
2023-09-13T19:30:13.287Z,21.81
2023-09-13T19:35:15.738Z,21.24
2023-09-13T19:40:17.915Z,21.78
2023-09-13T19:45:23.311Z,21.53
2023-09-13T19:50:25.097Z,21.37
2023-09-13T19:55:27.824Z,20.88
2023-09-13T20:00:30.603Z,20.29
2023-09-13T20:05:36.119Z,19.57
2023-09-13T20:10:37.797Z,19.29
2023-09-13T20:15:39.482Z,19.47
2023-09-13T20:20:41.240Z,20.19
2023-09-13T20:25:42.945Z,22.04
2023-09-13T20:30:44.700Z,22.37
2023-09-13T20:35:46.795Z,21.02
2023-09-13T20:40:48.443Z,20.89
2023-09-13T20:45:50.492Z,21.45
2023-09-13T20:50:55.454Z,20.76
2023-09-13T20:55:57.115Z,19.92
2023-09-13T21:00:59.658Z,20.71
2023-09-13T21:06:01.453Z,19.81
2023-09-13T21:11:06.437Z,18.95
2023-09-13T21:16:09.446Z,19.25
2023-09-13T21:21:11.242Z,21.45
2023-09-13T21:26:14.385Z,20.37
2023-09-13T21:31:19.585Z,19.86
2023-09-13T21:36:21.445Z,21.05
2023-09-13T21:41:23.098Z,21.87
2023-09-13T21:46:24.751Z,22.28
2023-09-13T21:51:26.639Z,22.20
2023-09-13T21:56:28.371Z,21.78
2023-09-13T22:01:30.979Z,21.49
2023-09-13T22:06:33.490Z,21.53
2023-09-13T22:11:35.336Z,21.61
2023-09-13T22:16:37.178Z,21.61
2023-09-13T22:21:38.950Z,22.39
2023-09-13T22:26:40.711Z,21.40
2023-09-13T22:31:42.570Z,21.41
2023-09-13T22:36:44.733Z,21.31
2023-09-13T22:41:46.470Z,21.62
2023-09-13T22:46:48.206Z,21.90
2023-09-13T22:51:50.258Z,21.23
2023-09-13T22:56:52.299Z,21.26
2023-09-13T23:01:54.374Z,21.73
2023-09-13T23:06:56.128Z,21.25
2023-09-13T23:11:57.775Z,21.21
2023-09-13T23:16:59.511Z,20.43
2023-09-13T23:22:01.174Z,21.27
2023-09-13T23:27:03.745Z,20.37
2023-09-13T23:32:06.193Z,21.10
2023-09-13T23:37:07.972Z,20.53
2023-09-13T23:42:09.681Z,19.61
2023-09-13T23:47:11.345Z,21.06
2023-09-13T23:52:13.684Z,20.43
2023-09-13T23:57:15.335Z,19.25
